createdAt,value
2018-02-01T04:31:36.403Z,2.60
2018-02-01T04:34:04.284Z,2.60
2018-02-01T04:36:32.136Z,2.60
2018-02-01T04:39:00.001Z,2.60
2018-02-01T04:41:27.865Z,2.60
2018-02-01T04:43:55.732Z,2.40
2018-02-01T04:46:23.597Z,2.40
2018-02-01T04:48:51.359Z,2.20
2018-02-01T04:51:19.125Z,2.10
2018-02-01T04:53:47.090Z,2.20
2018-02-01T04:56:14.955Z,2.10
2018-02-01T04:58:42.820Z,2.20
2018-02-01T05:01:10.826Z,2.20
2018-02-01T05:03:39.311Z,2.30
2018-02-01T05:06:07.850Z,2.30
2018-02-01T05:08:35.613Z,2.20
2018-02-01T05:11:03.478Z,2.40
2018-02-01T05:13:31.342Z,2.40
2018-02-01T05:15:59.208Z,2.50
2018-02-01T05:18:27.011Z,2.60
2018-02-01T05:20:55.656Z,2.70
2018-02-01T05:23:23.418Z,2.70
2018-02-01T05:25:51.119Z,2.80
2018-02-01T05:28:19.661Z,2.90
2018-02-01T05:30:47.426Z,2.90
2018-02-01T05:33:15.289Z,2.90
2018-02-01T05:35:43.064Z,2.90
2018-02-01T05:38:10.920Z,3.00
2018-02-01T05:40:38.723Z,2.90
2018-02-01T05:43:07.365Z,3.00
2018-02-01T05:45:35.230Z,3.00
2018-02-01T05:48:03.097Z,3.10
2018-02-01T05:50:30.859Z,3.00
2018-02-01T05:52:58.724Z,3.00
2018-02-01T05:55:26.589Z,2.90
2018-02-01T05:57:54.454Z,2.90
2018-02-01T06:00:24.163Z,2.90
2018-02-01T06:02:52.131Z,2.80
2018-02-01T06:05:19.996Z,2.90
2018-02-01T06:07:47.963Z,2.80
2018-02-01T06:10:15.830Z,2.70
2018-02-01T06:12:43.592Z,2.70
2018-02-01T06:15:11.559Z,2.70
2018-02-01T06:17:39.323Z,2.60
2018-02-01T06:20:07.085Z,2.60
2018-02-01T06:22:35.054Z,2.60
2018-02-01T06:25:02.918Z,2.60
2018-02-01T06:27:30.784Z,2.60
2018-02-01T06:29:58.649Z,2.50
2018-02-01T06:32:26.412Z,2.60
2018-02-01T06:34:54.175Z,2.70
2018-02-01T06:37:22.041Z,2.70
2018-02-01T06:39:49.805Z,2.70
2018-02-01T06:42:17.607Z,2.70
2018-02-01T06:44:46.251Z,2.70
2018-02-01T06:47:14.116Z,2.70
2018-02-01T06:49:41.882Z,2.70
2018-02-01T06:52:09.848Z,2.70
2018-02-01T06:54:37.613Z,2.80
2018-02-01T06:57:05.577Z,2.80
2018-02-01T06:59:33.340Z,2.80
2018-02-01T07:02:01.102Z,2.80
2018-02-01T07:04:29.070Z,2.80
2018-02-01T07:06:56.991Z,2.80
2018-02-01T07:09:25.007Z,2.70
2018-02-01T07:11:53.641Z,2.70
2018-02-01T07:14:21.452Z,2.70
2018-02-01T07:16:49.319Z,2.70
2018-02-01T07:19:17.183Z,2.70
2018-02-01T07:21:45.152Z,2.70
2018-02-01T07:24:13.017Z,2.70
2018-02-01T07:26:40.780Z,2.80
2018-02-01T07:29:08.685Z,2.70
2018-02-01T07:31:37.226Z,2.80
2018-02-01T07:34:04.927Z,2.80
2018-02-01T07:36:33.472Z,2.90
2018-02-01T07:39:01.335Z,2.90
2018-02-01T07:41:29.200Z,2.90
2018-02-01T07:43:56.963Z,2.90
2018-02-01T07:46:24.726Z,2.90
2018-02-01T07:48:54.689Z,2.90
2018-02-01T07:51:24.766Z,3.00
2018-02-01T07:53:53.135Z,3.10
2018-02-01T07:56:20.855Z,3.10
2018-02-01T07:58:48.556Z,3.10
2018-02-01T08:01:16.359Z,3.20
2018-02-01T08:03:44.806Z,3.10
2018-02-01T08:06:12.540Z,3.10
2018-02-01T08:08:40.302Z,3.20
2018-02-01T08:11:08.018Z,3.20
2018-02-01T08:13:36.491Z,3.30
2018-02-01T08:16:04.212Z,3.30
2018-02-01T08:18:31.891Z,3.40
2018-02-01T08:20:59.609Z,3.40
2018-02-01T08:23:27.318Z,3.40
2018-02-01T08:25:54.991Z,3.40
2018-02-01T08:28:22.742Z,3.40
2018-02-01T08:30:50.424Z,3.50
2018-02-01T08:33:18.101Z,3.50
2018-02-01T08:35:46.625Z,3.60
2018-02-01T08:38:14.327Z,3.60
2018-02-01T08:40:42.031Z,3.60
2018-02-01T08:43:09.773Z,3.70
2018-02-01T08:45:37.446Z,3.70
2018-02-01T08:48:05.119Z,3.70
2018-02-01T08:50:32.834Z,3.80
2018-02-01T08:53:00.531Z,3.80
2018-02-01T08:55:28.274Z,3.80
2018-02-01T08:57:56.742Z,3.90
2018-02-01T09:00:25.188Z,3.90
2018-02-01T09:02:52.910Z,3.90
2018-02-01T09:05:20.606Z,4.00
2018-02-01T09:07:48.326Z,4.00
2018-02-01T09:10:16.023Z,4.00
2018-02-01T09:12:43.718Z,4.10
2018-02-01T09:15:11.467Z,4.20
2018-02-01T09:17:39.159Z,4.20
2018-02-01T09:20:07.623Z,4.30
2018-02-01T09:22:35.349Z,4.30
2018-02-01T09:25:03.047Z,4.30
2018-02-01T09:27:30.723Z,4.40
2018-02-01T09:29:59.231Z,4.40
2018-02-01T09:32:26.915Z,4.40
2018-02-01T09:34:54.591Z,4.50
2018-02-01T09:37:22.334Z,4.50
2018-02-01T09:39:50.019Z,4.60
2018-02-01T09:42:17.774Z,4.60
2018-02-01T09:44:45.511Z,4.80
2018-02-01T09:47:13.211Z,4.80
2018-02-01T09:49:40.891Z,4.80
2018-02-01T09:52:08.583Z,4.80
2018-02-01T09:54:36.319Z,4.80
2018-02-01T09:57:04.763Z,4.80
2018-02-01T09:59:32.435Z,4.80
2018-02-01T10:02:00.175Z,4.90
2018-02-01T10:04:27.855Z,5.00
2018-02-01T10:06:55.555Z,5.00
2018-02-01T10:09:23.307Z,5.00
2018-02-01T10:11:51.766Z,4.90
2018-02-01T10:14:19.476Z,4.90
2018-02-01T10:16:47.217Z,4.90
2018-02-01T10:19:15.679Z,5.00
2018-02-01T10:21:43.351Z,5.00
2018-02-01T10:24:11.867Z,5.20
2018-02-01T10:26:39.543Z,5.20
2018-02-01T10:29:07.214Z,5.20
2018-02-01T10:31:35.080Z,5.20
2018-02-01T10:34:02.946Z,5.30
2018-02-01T10:36:30.709Z,5.40
2018-02-01T10:38:58.473Z,5.30
2018-02-01T10:41:26.336Z,5.40
2018-02-01T10:43:54.099Z,5.40
2018-02-01T10:46:21.863Z,5.50
2018-02-01T10:48:49.738Z,5.30
2018-02-01T10:51:17.543Z,5.30
2018-02-01T10:53:45.458Z,5.40
2018-02-01T10:56:17.829Z,5.40
2018-02-01T10:58:45.694Z,5.40
2018-02-01T11:01:13.662Z,5.40
2018-02-01T11:03:41.431Z,5.60
2018-02-01T11:06:10.010Z,5.50
2018-02-01T11:08:37.719Z,5.40
2018-02-01T11:11:06.160Z,5.50
2018-02-01T11:13:33.909Z,5.50
2018-02-01T11:16:01.639Z,5.40
2018-02-01T11:18:29.343Z,5.40
2018-02-01T11:20:57.040Z,5.40
2018-02-01T11:23:25.485Z,5.40
2018-02-01T11:25:53.318Z,5.40
2018-02-01T11:28:21.027Z,5.50
2018-02-01T11:30:48.727Z,5.50
2018-02-01T11:33:16.439Z,5.40
2018-02-01T11:35:44.131Z,5.30
2018-02-01T11:38:12.594Z,5.20
2018-02-01T11:40:41.063Z,5.30
2018-02-01T11:43:08.785Z,5.30
2018-02-01T11:45:36.499Z,5.30
2018-02-01T11:48:05.766Z,5.00
2018-02-01T11:50:34.275Z,5.20
2018-02-01T11:53:02.734Z,5.00
2018-02-01T11:55:30.475Z,5.00
2018-02-01T11:57:58.153Z,5.00
2018-02-01T12:00:25.827Z,5.10
2018-02-01T12:02:53.519Z,5.20
2018-02-01T12:05:22.019Z,5.20
2018-02-01T12:07:49.699Z,5.20
2018-02-01T12:10:17.389Z,5.30
2018-02-01T12:12:45.087Z,5.20
2018-02-01T12:15:12.806Z,5.20
2018-02-01T12:17:40.528Z,5.20
2018-02-01T12:20:08.239Z,5.20
2018-02-01T12:22:35.980Z,5.30
2018-02-01T12:25:03.663Z,5.30
2018-02-01T12:27:31.335Z,5.20
2018-02-01T12:29:59.027Z,5.30
2018-02-01T12:32:26.864Z,5.30
2018-02-01T12:34:55.326Z,5.40
2018-02-01T12:37:23.022Z,5.40
2018-02-01T12:39:50.739Z,5.40
2018-02-01T12:42:18.435Z,5.30
2018-02-01T12:44:46.899Z,5.20
2018-02-01T12:47:14.618Z,5.20
2018-02-01T12:49:42.317Z,5.20
2018-02-01T12:52:09.987Z,5.30
2018-02-01T12:54:37.767Z,5.30
2018-02-01T12:57:06.226Z,5.20
2018-02-01T12:59:33.919Z,5.20
2018-02-01T13:02:01.639Z,5.20
2018-02-01T13:04:29.339Z,5.10
2018-02-01T13:06:57.039Z,5.10
2018-02-01T13:09:24.731Z,5.10
2018-02-01T13:11:52.407Z,5.00
2018-02-01T13:14:20.890Z,5.10
2018-02-01T13:16:49.351Z,5.00
2018-02-01T13:19:18.684Z,5.00
2018-02-01T13:21:46.391Z,5.00
2018-02-01T13:24:14.091Z,5.00
2018-02-01T13:26:42.579Z,4.90
2018-02-01T13:29:11.026Z,4.80
2018-02-01T13:31:38.725Z,4.80
2018-02-01T13:34:06.738Z,4.80
2018-02-01T13:36:34.603Z,4.80
2018-02-01T13:39:02.367Z,4.80
2018-02-01T13:41:30.231Z,4.80
2018-02-01T13:43:57.943Z,4.70
2018-02-01T13:46:25.858Z,4.80
2018-02-01T13:48:53.622Z,4.80
2018-02-01T13:51:21.487Z,4.80
2018-02-01T13:53:49.353Z,4.80
2018-02-01T13:56:17.116Z,4.80
2018-02-01T13:58:44.982Z,4.70
2018-02-01T14:01:12.743Z,4.80
2018-02-01T14:03:40.609Z,4.90
2018-02-01T14:06:08.515Z,4.80
2018-02-01T14:08:37.158Z,4.70
2018-02-01T14:11:04.924Z,4.70
2018-02-01T14:13:32.831Z,4.70
2018-02-01T14:16:01.370Z,4.70
2018-02-01T14:18:29.133Z,4.70
2018-02-01T14:20:56.998Z,4.70
2018-02-01T14:23:24.760Z,4.70
2018-02-01T14:25:52.625Z,4.50
2018-02-01T14:28:20.334Z,4.60
2018-02-01T14:30:48.868Z,4.50
2018-02-01T14:33:16.839Z,4.50
2018-02-01T14:35:44.703Z,4.50
2018-02-01T14:38:12.575Z,4.50
2018-02-01T14:40:40.487Z,4.50
2018-02-01T14:43:08.404Z,4.50
2018-02-01T14:45:36.162Z,4.40
2018-02-01T14:48:04.131Z,4.50
2018-02-01T14:50:31.895Z,4.50
2018-02-01T14:52:59.759Z,4.40
2018-02-01T14:55:27.484Z,4.30
2018-02-01T14:57:55.171Z,4.20
2018-02-01T15:00:22.852Z,4.20
2018-02-01T15:02:50.574Z,4.20
2018-02-01T15:05:18.251Z,4.00
2018-02-01T15:07:45.951Z,4.00
2018-02-01T15:10:13.642Z,4.00
2018-02-01T15:12:41.330Z,4.00
2018-02-01T15:15:09.090Z,4.00
2018-02-01T15:17:36.739Z,4.00
2018-02-01T15:20:04.432Z,3.90
2018-02-01T15:22:32.177Z,3.80
2018-02-01T15:24:59.933Z,3.80
2018-02-01T15:27:27.646Z,3.80
2018-02-01T15:29:55.315Z,3.80
2018-02-01T15:32:23.778Z,3.70
2018-02-01T15:34:51.485Z,3.70
2018-02-01T15:37:19.204Z,3.60
2018-02-01T15:39:46.880Z,3.50
2018-02-01T15:42:15.425Z,3.60
2018-02-01T15:44:43.291Z,3.60
2018-02-01T15:47:11.053Z,3.50
2018-02-01T15:49:38.754Z,3.50
2018-02-01T15:52:07.239Z,3.40
2018-02-01T15:54:35.680Z,3.40
2018-02-01T15:57:03.441Z,3.40
2018-02-01T15:59:31.359Z,3.50
2018-02-01T16:01:59.169Z,3.30
2018-02-01T16:04:29.084Z,3.40
2018-02-01T16:06:59.430Z,3.30
2018-02-01T16:09:27.475Z,3.20
2018-02-01T16:11:55.440Z,3.20
2018-02-01T16:14:23.204Z,3.20
2018-02-01T16:16:51.069Z,3.20
2018-02-01T16:19:18.936Z,3.20
2018-02-01T16:21:46.801Z,3.10
2018-02-01T16:24:14.766Z,3.20
2018-02-01T16:26:42.530Z,3.10
2018-02-01T16:29:10.243Z,3.00
2018-02-01T16:31:38.056Z,2.90
2018-02-01T16:34:05.922Z,2.90
2018-02-01T16:36:33.786Z,2.80
2018-02-01T16:39:01.652Z,2.70
2018-02-01T16:41:29.570Z,2.80
2018-02-01T16:43:57.383Z,2.70
2018-02-01T16:46:25.964Z,2.60
2018-02-01T16:48:53.931Z,2.60
2018-02-01T16:51:21.797Z,2.60
2018-02-01T16:53:49.561Z,2.60
2018-02-01T16:56:19.924Z,2.60
2018-02-01T16:58:48.057Z,2.70
2018-02-01T17:01:15.920Z,2.60
2018-02-01T17:03:44.304Z,2.60
2018-02-01T17:06:12.777Z,2.60
2018-02-01T17:08:42.179Z,2.40
2018-02-01T17:11:10.863Z,2.40
2018-02-01T17:13:40.855Z,2.40
2018-02-01T17:16:09.076Z,2.40
2018-02-01T17:18:37.020Z,2.30
2018-02-01T17:21:05.488Z,2.30
2018-02-01T17:23:35.003Z,2.10
2018-02-01T17:26:03.628Z,2.10
2018-02-01T17:28:31.883Z,2.10
2018-02-01T17:30:59.934Z,2.10
2018-02-01T17:33:29.184Z,2.00
2018-02-01T17:35:57.094Z,2.00
2018-02-01T17:38:25.074Z,1.90
2018-02-01T17:40:52.932Z,2.00
2018-02-01T17:43:20.792Z,2.10
2018-02-01T17:45:48.661Z,2.20
2018-02-01T17:48:16.525Z,2.20
2018-02-01T17:50:44.392Z,2.20
2018-02-01T17:53:12.255Z,2.20
2018-02-01T17:55:40.018Z,2.30
2018-02-01T17:58:07.985Z,2.30
2018-02-01T18:00:35.702Z,2.30
2018-02-01T18:03:03.510Z,2.20
2018-02-01T18:05:31.507Z,2.20
2018-02-01T18:08:00.061Z,2.20
2018-02-01T18:10:27.927Z,2.20
2018-02-01T18:12:55.689Z,2.20
2018-02-01T18:15:23.553Z,2.10
2018-02-01T18:17:51.420Z,2.00
2018-02-01T18:20:19.288Z,2.00
2018-02-01T18:22:47.047Z,2.00
2018-02-01T18:25:14.913Z,1.90
2018-02-01T18:27:42.777Z,2.00
2018-02-01T18:30:10.541Z,2.00
2018-02-01T18:32:38.407Z,1.90
2018-02-01T18:35:06.169Z,1.80
2018-02-01T18:37:33.931Z,1.70
2018-02-01T18:40:01.900Z,1.70
2018-02-01T18:42:29.765Z,1.70
2018-02-01T18:44:57.631Z,1.70
2018-02-01T18:47:25.497Z,1.60
2018-02-01T18:49:53.361Z,1.60
2018-02-01T18:52:21.178Z,1.60
2018-02-01T18:54:49.855Z,1.50
2018-02-01T18:57:18.395Z,1.50
2018-02-01T18:59:46.256Z,1.50
2018-02-01T19:02:14.020Z,1.50
2018-02-01T19:04:41.885Z,1.50
2018-02-01T19:07:09.749Z,1.50
2018-02-01T19:09:37.471Z,1.40
2018-02-01T19:12:05.275Z,1.30
2018-02-01T19:14:33.243Z,1.40
2018-02-01T19:17:01.005Z,1.40
2018-02-01T19:19:28.703Z,1.40
2018-02-01T19:21:57.287Z,1.40
2018-02-01T19:24:25.933Z,1.40
2018-02-01T19:26:53.900Z,1.40
2018-02-01T19:29:21.663Z,1.20
2018-02-01T19:31:49.426Z,1.20
2018-02-01T19:34:17.394Z,1.20
2018-02-01T19:36:45.156Z,1.20
2018-02-01T19:39:13.696Z,1.20
2018-02-01T19:41:41.502Z,1.20
2018-02-01T19:44:09.266Z,1.10
2018-02-01T19:46:37.083Z,1.00
2018-02-01T19:49:04.832Z,0.90
2018-02-01T19:51:33.475Z,0.80
2018-02-01T19:54:01.341Z,0.70
2018-02-01T19:56:29.055Z,0.80
2018-02-01T19:58:57.010Z,0.70
2018-02-01T20:01:25.653Z,0.80
2018-02-01T20:03:55.172Z,0.80
2018-02-01T20:06:23.842Z,0.90
2018-02-01T20:08:51.550Z,0.80
2018-02-01T20:11:20.193Z,1.00
2018-02-01T20:13:48.768Z,1.00
2018-02-01T20:16:16.532Z,1.00
2018-02-01T20:18:44.396Z,1.00
2018-02-01T20:21:12.263Z,1.00
2018-02-01T20:23:40.075Z,1.00
2018-02-01T20:26:07.890Z,1.00
2018-02-01T20:28:35.755Z,0.90
2018-02-01T20:31:03.518Z,0.90
2018-02-01T20:33:31.384Z,0.80
2018-02-01T20:35:59.148Z,0.80
2018-02-01T20:38:27.115Z,0.90
2018-02-01T20:40:54.880Z,1.00
2018-02-01T20:43:22.745Z,0.90
2018-02-01T20:45:50.459Z,1.00
2018-02-01T20:48:18.269Z,0.80
2018-02-01T20:50:46.133Z,0.80
2018-02-01T20:53:14.000Z,0.80
2018-02-01T20:55:41.967Z,0.80
2018-02-01T20:58:09.771Z,0.80
2018-02-01T21:00:38.312Z,0.80
2018-02-01T21:03:06.176Z,0.80
2018-02-01T21:05:34.043Z,1.00
2018-02-01T21:08:01.805Z,1.00
2018-02-01T21:10:30.492Z,1.10
2018-02-01T21:12:59.278Z,1.30
2018-02-01T21:15:27.041Z,1.30
2018-02-01T21:17:54.905Z,1.30
2018-02-01T21:20:22.770Z,1.30
2018-02-01T21:22:50.535Z,1.30
2018-02-01T21:25:18.615Z,1.30
2018-02-01T21:27:46.571Z,1.30
2018-02-01T21:30:14.336Z,1.30
2018-02-01T21:32:42.249Z,1.20
2018-02-01T21:35:10.168Z,1.20
2018-02-01T21:37:37.971Z,1.20
2018-02-01T21:40:07.126Z,1.20
2018-02-01T21:42:34.992Z,1.20
2018-02-01T21:45:02.856Z,1.20
2018-02-01T21:47:30.619Z,1.20
2018-02-01T21:49:58.382Z,1.10
2018-02-01T21:52:26.185Z,1.10
2018-02-01T21:54:54.727Z,1.10
2018-02-01T21:57:22.541Z,1.10
2018-02-01T21:59:50.355Z,1.10
2018-02-01T22:02:18.067Z,1.10
2018-02-01T22:04:45.983Z,1.10
2018-02-01T22:07:13.849Z,1.10
2018-02-01T22:09:41.611Z,1.10
2018-02-01T22:12:09.376Z,1.10
2018-02-01T22:14:37.186Z,1.10
2018-02-01T22:17:05.003Z,1.10
2018-02-01T22:19:32.868Z,1.00
2018-02-01T22:22:00.734Z,1.00
2018-02-01T22:24:28.702Z,0.90
2018-02-01T22:26:56.743Z,0.90
2018-02-01T22:29:25.688Z,0.80
2018-02-01T22:31:54.242Z,0.70
2018-02-01T22:34:22.210Z,0.70
2018-02-01T22:36:49.913Z,0.70
2018-02-01T22:39:18.454Z,0.70
2018-02-01T22:41:46.422Z,0.70
2018-02-01T22:44:14.192Z,0.60
2018-02-01T22:46:41.986Z,0.60
2018-02-01T22:49:10.631Z,0.70
2018-02-01T22:51:38.435Z,0.70
2018-02-01T22:54:07.124Z,0.60
2018-02-01T22:56:35.764Z,0.60
2018-02-01T22:59:03.732Z,0.70
2018-02-01T23:01:31.598Z,0.80
2018-02-01T23:03:59.361Z,0.90
2018-02-01T23:06:27.270Z,1.00
2018-02-01T23:08:55.908Z,1.10
2018-02-01T23:11:23.672Z,1.00
2018-02-01T23:13:51.742Z,1.10
2018-02-01T23:16:19.506Z,1.10
2018-02-01T23:18:47.268Z,1.10
2018-02-01T23:21:15.235Z,1.20
2018-02-01T23:23:42.998Z,1.10
2018-02-01T23:26:10.762Z,1.10
2018-02-01T23:28:38.626Z,1.10
